createdAt,value
2019-06-26T00:01:10.495Z,24.49
2019-06-26T00:03:40.741Z,24.49
2019-06-26T00:06:10.348Z,24.51
2019-06-26T00:08:39.966Z,24.48
2019-06-26T00:11:09.846Z,24.48
2019-06-26T00:13:39.451Z,24.50
2019-06-26T00:16:09.091Z,24.48
2019-06-26T00:18:38.828Z,24.46
2019-06-26T00:21:08.495Z,24.45
2019-06-26T00:23:38.395Z,24.44
2019-06-26T00:26:08.069Z,24.44
2019-06-26T00:28:37.866Z,24.47
2019-06-26T00:31:07.485Z,24.50
2019-06-26T00:33:37.190Z,24.47
2019-06-26T00:36:06.880Z,24.47
2019-06-26T00:38:39.960Z,24.46
2019-06-26T00:41:07.876Z,24.45
2019-06-26T00:43:42.362Z,24.44
2019-06-26T00:46:08.931Z,24.42
2019-06-26T00:48:38.609Z,24.40
2019-06-26T00:51:08.256Z,24.41
2019-06-26T00:53:37.861Z,24.37
2019-06-26T00:56:07.527Z,24.35
2019-06-26T00:58:37.190Z,24.36
2019-06-26T01:01:07.180Z,24.37
2019-06-26T01:03:36.846Z,24.36
2019-06-26T01:06:08.101Z,24.38
2019-06-26T01:08:37.755Z,24.39
2019-06-26T01:11:07.437Z,24.38
2019-06-26T01:13:37.062Z,24.39
2019-06-26T01:16:06.678Z,24.40
2019-06-26T01:18:36.607Z,24.38
2019-06-26T01:21:06.234Z,24.36
2019-06-26T01:23:35.860Z,24.37
2019-06-26T01:26:05.527Z,24.35
2019-06-26T01:28:35.158Z,24.36
2019-06-26T01:31:04.845Z,24.39
2019-06-26T01:33:34.547Z,24.43
2019-06-26T01:36:04.177Z,24.47
2019-06-26T01:38:33.792Z,24.51
2019-06-26T01:41:03.461Z,24.54
2019-06-26T01:43:33.095Z,24.63
2019-06-26T01:46:02.725Z,24.70
2019-06-26T01:48:32.387Z,24.77
2019-06-26T01:51:02.007Z,24.83
2019-06-26T01:53:31.815Z,24.91
2019-06-26T01:56:01.567Z,25.00
2019-06-26T01:58:31.155Z,25.06
2019-06-26T02:01:00.775Z,25.12
2019-06-26T02:03:30.432Z,25.18
2019-06-26T02:06:00.068Z,25.24
2019-06-26T02:08:29.677Z,25.31
2019-06-26T02:10:59.342Z,25.36
2019-06-26T02:13:28.960Z,25.40
2019-06-26T02:15:58.578Z,25.43
2019-06-26T02:18:41.750Z,25.47
2019-06-26T02:21:12.433Z,25.50
2019-06-26T02:23:42.526Z,25.53
2019-06-26T02:26:13.591Z,25.56
2019-06-26T02:28:43.466Z,25.57
2019-06-26T02:31:13.164Z,25.59
2019-06-26T02:33:42.876Z,25.62
2019-06-26T02:36:12.482Z,25.64
2019-06-26T02:38:42.107Z,25.65
2019-06-26T02:41:11.782Z,25.66
2019-06-26T02:43:41.403Z,25.67
2019-06-26T02:46:11.045Z,25.67
2019-06-26T02:48:40.684Z,25.68
2019-06-26T02:51:10.317Z,25.69
2019-06-26T02:53:39.920Z,25.70
2019-06-26T02:56:09.656Z,25.71
2019-06-26T02:58:39.274Z,25.74
2019-06-26T03:01:08.907Z,25.74
2019-06-26T03:03:38.558Z,25.75
2019-06-26T03:06:08.179Z,25.75
2019-06-26T03:08:37.805Z,25.74
2019-06-26T03:11:07.510Z,25.72
2019-06-26T03:13:37.200Z,25.71
2019-06-26T03:16:06.891Z,25.70
2019-06-26T03:18:36.951Z,25.67
2019-06-26T03:21:07.449Z,25.69
2019-06-26T03:23:37.748Z,25.70
2019-06-26T03:26:08.689Z,25.68
2019-06-26T03:28:38.289Z,25.70
2019-06-26T03:31:07.927Z,25.72
2019-06-26T03:33:37.631Z,25.73
2019-06-26T03:36:07.249Z,25.73
2019-06-26T03:38:37.545Z,25.75
2019-06-26T03:41:07.210Z,25.75
2019-06-26T03:43:37.490Z,25.74
2019-06-26T03:46:07.114Z,25.72
2019-06-26T03:48:36.864Z,25.70
2019-06-26T03:51:07.077Z,25.69
2019-06-26T03:53:37.473Z,25.68
2019-06-26T03:56:07.152Z,25.67
2019-06-26T03:58:36.797Z,25.67
2019-06-26T04:01:06.474Z,25.69
2019-06-26T04:03:36.114Z,25.66
2019-06-26T04:06:05.732Z,25.65
2019-06-26T04:08:35.703Z,25.63
2019-06-26T04:11:05.539Z,25.61
2019-06-26T04:13:35.431Z,25.63
2019-06-26T04:16:05.036Z,25.63
2019-06-26T04:18:34.973Z,25.63
2019-06-26T04:21:05.317Z,25.63
2019-06-26T04:23:34.934Z,25.61
2019-06-26T04:26:04.690Z,25.61
2019-06-26T04:28:34.325Z,25.63
2019-06-26T04:31:04.055Z,25.64
2019-06-26T04:33:33.750Z,25.64
2019-06-26T04:36:03.652Z,25.66
2019-06-26T04:38:33.303Z,25.67
2019-06-26T04:41:03.040Z,25.68
2019-06-26T04:43:32.668Z,25.71
2019-06-26T04:46:02.360Z,25.69
2019-06-26T04:48:32.017Z,25.69
2019-06-26T04:51:01.663Z,25.67
2019-06-26T04:53:31.345Z,25.67
2019-06-26T04:56:01.117Z,25.69
2019-06-26T04:58:30.798Z,25.71
2019-06-26T05:01:00.521Z,25.74
2019-06-26T05:03:30.440Z,25.78
2019-06-26T05:06:00.530Z,25.79
2019-06-26T05:08:30.188Z,25.81
2019-06-26T05:10:59.898Z,25.81
2019-06-26T05:13:29.518Z,25.82
2019-06-26T05:16:13.800Z,25.85
2019-06-26T05:18:30.544Z,25.86
2019-06-26T05:21:00.531Z,25.86
2019-06-26T05:23:30.145Z,25.87
2019-06-26T05:25:59.808Z,25.87
2019-06-26T05:28:29.426Z,25.91
2019-06-26T05:30:59.051Z,25.94
2019-06-26T05:33:28.716Z,25.96
2019-06-26T05:35:58.339Z,25.98
2019-06-26T05:38:28.434Z,26.00
2019-06-26T05:40:58.133Z,26.03
2019-06-26T05:43:27.774Z,26.04
2019-06-26T05:45:57.411Z,26.06
2019-06-26T05:48:27.068Z,26.12
2019-06-26T05:50:56.705Z,26.17
2019-06-26T05:53:26.339Z,26.23
2019-06-26T05:55:56.071Z,26.24
2019-06-26T05:58:26.065Z,26.29
2019-06-26T06:00:55.723Z,26.32
2019-06-26T06:03:25.495Z,26.35
2019-06-26T06:05:55.502Z,26.39
2019-06-26T06:08:25.125Z,26.43
2019-06-26T06:10:57.995Z,26.46
2019-06-26T06:13:26.134Z,26.49
2019-06-26T06:15:56.042Z,26.50
2019-06-26T06:18:25.731Z,26.54
2019-06-26T06:20:55.629Z,26.59
2019-06-26T06:23:25.273Z,26.64
2019-06-26T06:25:55.004Z,26.71
2019-06-26T06:28:24.668Z,26.84
2019-06-26T06:30:54.272Z,26.95
2019-06-26T06:33:23.934Z,27.07
2019-06-26T06:35:53.557Z,27.17
2019-06-26T06:38:23.188Z,27.29
2019-06-26T06:40:52.884Z,27.38
2019-06-26T06:43:22.499Z,27.44
2019-06-26T06:45:52.134Z,27.51
2019-06-26T06:48:22.186Z,27.60
2019-06-26T06:50:51.819Z,27.66
2019-06-26T06:53:21.813Z,27.69
2019-06-26T06:55:52.193Z,27.67
2019-06-26T06:58:21.871Z,27.64
2019-06-26T07:00:51.479Z,27.60
2019-06-26T07:03:21.167Z,27.59
2019-06-26T07:05:50.809Z,27.57
2019-06-26T07:08:20.702Z,27.59
2019-06-26T07:10:50.410Z,27.62
2019-06-26T07:13:20.002Z,27.64
2019-06-26T07:15:49.638Z,27.65
2019-06-26T07:18:19.525Z,27.65
2019-06-26T07:20:49.227Z,27.65
2019-06-26T07:23:18.923Z,27.66
2019-06-26T07:25:48.674Z,27.67
2019-06-26T07:28:18.445Z,27.68
2019-06-26T07:30:48.118Z,27.69
2019-06-26T07:33:18.135Z,27.70
2019-06-26T07:35:47.761Z,27.72
2019-06-26T07:38:17.451Z,27.76
2019-06-26T07:40:47.076Z,27.78
2019-06-26T07:43:16.911Z,27.79
2019-06-26T07:45:46.687Z,27.82
2019-06-26T07:48:16.312Z,27.87
2019-06-26T07:50:45.941Z,28.00
2019-06-26T07:53:15.612Z,28.14
2019-06-26T07:55:45.234Z,28.25
2019-06-26T07:58:14.875Z,28.34
2019-06-26T08:00:44.550Z,28.43
2019-06-26T08:03:14.156Z,28.51
2019-06-26T08:05:43.858Z,28.57
2019-06-26T08:08:14.852Z,28.62
2019-06-26T08:10:44.584Z,28.68
2019-06-26T08:13:14.269Z,28.74
2019-06-26T08:15:43.954Z,28.79
2019-06-26T08:18:13.584Z,28.84
2019-06-26T08:20:55.491Z,28.89
2019-06-26T08:23:14.656Z,28.93
2019-06-26T08:25:44.304Z,28.99
2019-06-26T08:28:14.004Z,29.03
2019-06-26T08:30:43.708Z,29.06
2019-06-26T08:33:13.420Z,29.04
2019-06-26T08:35:43.131Z,29.06
2019-06-26T08:38:15.628Z,29.13
2019-06-26T08:40:44.153Z,29.14
2019-06-26T08:43:13.766Z,29.15
2019-06-26T08:45:43.532Z,29.18
2019-06-26T08:48:19.364Z,29.20
2019-06-26T08:50:44.496Z,29.21
2019-06-26T08:53:14.338Z,29.20
2019-06-26T08:55:43.970Z,29.24
2019-06-26T08:58:13.593Z,29.28
2019-06-26T09:00:43.297Z,29.34
2019-06-26T09:03:12.992Z,29.36
2019-06-26T09:05:48.162Z,29.38
2019-06-26T09:08:14.127Z,29.41
2019-06-26T09:10:45.290Z,29.46
2019-06-26T09:13:15.387Z,29.49
2019-06-26T09:15:49.540Z,29.52
2019-06-26T09:18:16.438Z,29.56
2019-06-26T09:20:47.758Z,29.63
2019-06-26T09:23:18.766Z,29.67
2019-06-26T09:25:48.387Z,29.65
2019-06-26T09:28:18.098Z,29.66
2019-06-26T09:30:47.808Z,29.70
2019-06-26T09:33:17.468Z,29.75
2019-06-26T09:35:47.166Z,29.82
2019-06-26T09:38:17.607Z,29.86
2019-06-26T09:40:47.238Z,29.91
2019-06-26T09:43:17.169Z,29.95
2019-06-26T09:45:46.831Z,30.00
2019-06-26T09:48:16.452Z,30.04
2019-06-26T09:50:46.087Z,30.07
2019-06-26T09:53:15.797Z,30.10
2019-06-26T09:55:47.013Z,30.14
2019-06-26T09:58:16.638Z,30.19
2019-06-26T10:00:46.311Z,30.23
2019-06-26T10:03:15.944Z,30.28
2019-06-26T10:05:45.591Z,30.32
2019-06-26T10:08:15.257Z,30.33
2019-06-26T10:10:44.886Z,30.39
2019-06-26T10:13:14.706Z,30.42
2019-06-26T10:15:44.392Z,30.44
2019-06-26T10:18:14.039Z,30.47
2019-06-26T10:20:46.290Z,30.45
2019-06-26T10:23:15.957Z,30.41
2019-06-26T10:25:45.748Z,30.33
2019-06-26T10:28:16.182Z,30.25
2019-06-26T10:30:46.482Z,30.19
2019-06-26T10:33:16.133Z,30.12
2019-06-26T10:35:45.795Z,30.06
2019-06-26T10:38:15.823Z,30.01
2019-06-26T10:40:45.525Z,29.96
2019-06-26T10:43:15.178Z,29.94
2019-06-26T10:45:44.850Z,29.93
2019-06-26T10:48:16.307Z,29.93
2019-06-26T10:50:50.063Z,29.94
2019-06-26T10:53:17.377Z,29.92
2019-06-26T10:55:47.023Z,29.91
2019-06-26T10:58:16.733Z,29.89
2019-06-26T11:00:46.817Z,29.88
2019-06-26T11:03:16.440Z,29.86
2019-06-26T11:05:46.441Z,29.85
2019-06-26T11:08:16.101Z,29.83
2019-06-26T11:10:45.990Z,29.82
2019-06-26T11:13:15.633Z,29.83
2019-06-26T11:15:45.466Z,29.85
2019-06-26T11:18:15.050Z,29.88
2019-06-26T11:20:44.741Z,29.89
2019-06-26T11:23:15.273Z,29.90
2019-06-26T11:25:45.486Z,29.90
2019-06-26T11:28:15.145Z,29.92
2019-06-26T11:30:44.938Z,29.95
2019-06-26T11:33:14.615Z,29.98
2019-06-26T11:35:44.210Z,30.00
2019-06-26T11:38:13.885Z,30.04
2019-06-26T11:40:43.507Z,30.08
2019-06-26T11:43:13.146Z,30.12
2019-06-26T11:45:43.080Z,30.14
2019-06-26T11:48:12.772Z,30.19
2019-06-26T11:50:42.420Z,30.24
2019-06-26T11:53:12.434Z,30.28
2019-06-26T11:55:42.140Z,30.32
2019-06-26T11:58:11.771Z,30.36
2019-06-26T12:00:41.825Z,30.40
2019-06-26T12:03:14.249Z,30.42
2019-06-26T12:05:43.880Z,30.47
2019-06-26T12:08:13.593Z,30.56
2019-06-26T12:10:43.206Z,30.61
2019-06-26T12:13:12.934Z,30.69
2019-06-26T12:15:42.589Z,30.80
2019-06-26T12:18:12.498Z,30.91
2019-06-26T12:20:42.208Z,30.97
2019-06-26T12:23:11.882Z,31.05
2019-06-26T12:25:42.449Z,31.10
2019-06-26T12:28:12.089Z,31.15
2019-06-26T12:30:41.796Z,31.20
2019-06-26T12:33:11.498Z,31.29
2019-06-26T12:35:41.197Z,31.40
2019-06-26T12:38:10.913Z,31.54
2019-06-26T12:40:40.546Z,31.65
2019-06-26T12:43:10.176Z,31.77
2019-06-26T12:45:39.840Z,31.86
2019-06-26T12:48:09.550Z,31.97
2019-06-26T12:50:39.192Z,32.09
2019-06-26T12:53:08.889Z,32.17
2019-06-26T12:55:38.554Z,32.26
2019-06-26T12:58:13.954Z,32.34
2019-06-26T13:00:39.525Z,32.39
2019-06-26T13:03:09.778Z,32.49
2019-06-26T13:05:39.781Z,32.52
2019-06-26T13:08:09.550Z,32.62
2019-06-26T13:10:49.001Z,32.70
2019-06-26T13:13:10.494Z,32.74
2019-06-26T13:15:40.162Z,32.83
2019-06-26T13:18:09.959Z,32.86
2019-06-26T13:20:52.283Z,32.90
2019-06-26T13:23:14.591Z,32.94
2019-06-26T13:25:42.372Z,32.99
2019-06-26T13:28:12.905Z,33.04
2019-06-26T13:30:42.659Z,33.12
2019-06-26T13:33:12.302Z,33.20
2019-06-26T13:35:41.931Z,33.26
2019-06-26T13:38:11.619Z,33.34
2019-06-26T13:40:41.397Z,33.37
2019-06-26T13:43:11.056Z,33.40
2019-06-26T13:45:40.744Z,33.44
2019-06-26T13:48:10.643Z,33.49
2019-06-26T13:50:40.373Z,33.54
2019-06-26T13:53:10.072Z,33.57
2019-06-26T13:55:40.039Z,33.55
2019-06-26T13:58:09.698Z,33.56
2019-06-26T14:00:41.179Z,33.54
2019-06-26T14:03:11.186Z,33.49
2019-06-26T14:05:40.831Z,33.52
2019-06-26T14:08:11.045Z,33.55
2019-06-26T14:10:40.730Z,33.58
2019-06-26T14:13:10.398Z,33.64
2019-06-26T14:15:40.431Z,33.72
2019-06-26T14:18:10.128Z,33.79
2019-06-26T14:20:39.770Z,33.83
2019-06-26T14:23:09.716Z,33.88
2019-06-26T14:25:39.714Z,33.95
2019-06-26T14:28:09.344Z,34.01
2019-06-26T14:30:39.071Z,34.07
2019-06-26T14:33:08.690Z,34.12
2019-06-26T14:35:38.904Z,34.15
2019-06-26T14:38:08.697Z,34.19
2019-06-26T14:40:39.098Z,34.24
2019-06-26T14:43:08.725Z,34.25
2019-06-26T14:45:38.751Z,34.29
2019-06-26T14:48:08.639Z,34.32
2019-06-26T14:50:38.309Z,34.32
2019-06-26T14:53:08.099Z,34.35
2019-06-26T14:55:37.884Z,34.41
2019-06-26T14:58:07.616Z,34.46
2019-06-26T15:00:38.208Z,34.50
2019-06-26T15:03:07.913Z,34.53
2019-06-26T15:05:37.544Z,34.51
2019-06-26T15:08:07.258Z,34.53
2019-06-26T15:10:37.582Z,34.61
2019-06-26T15:13:07.283Z,34.66
2019-06-26T15:15:36.953Z,34.68
2019-06-26T15:18:06.571Z,34.72
2019-06-26T15:20:36.225Z,34.77
2019-06-26T15:23:05.893Z,34.82
2019-06-26T15:25:35.516Z,34.86
2019-06-26T15:28:05.155Z,34.92
2019-06-26T15:30:34.844Z,34.95
2019-06-26T15:33:04.493Z,34.96
2019-06-26T15:35:34.182Z,34.94
2019-06-26T15:38:04.402Z,34.91
2019-06-26T15:40:35.678Z,34.92
2019-06-26T15:43:05.295Z,34.93
2019-06-26T15:45:35.042Z,34.96
2019-06-26T15:48:04.988Z,34.96
2019-06-26T15:50:34.689Z,34.94
2019-06-26T15:53:04.423Z,34.94
2019-06-26T15:55:34.127Z,34.93
2019-06-26T15:58:03.786Z,34.94
2019-06-26T16:00:33.443Z,34.99
2019-06-26T16:03:03.729Z,35.08
2019-06-26T16:05:33.359Z,35.14
2019-06-26T16:08:03.097Z,35.19
2019-06-26T16:10:34.625Z,35.27
2019-06-26T16:13:04.032Z,35.32
2019-06-26T16:15:34.308Z,35.34
2019-06-26T16:18:05.613Z,35.35
2019-06-26T16:20:35.247Z,35.35
2019-06-26T16:23:05.025Z,35.33
2019-06-26T16:25:34.704Z,35.29
2019-06-26T16:28:05.991Z,35.25
2019-06-26T16:30:35.905Z,35.19
2019-06-26T16:33:05.608Z,35.11
2019-06-26T16:35:35.380Z,35.07
2019-06-26T16:38:05.149Z,35.03
2019-06-26T16:40:34.946Z,35.02
2019-06-26T16:43:04.576Z,34.99
2019-06-26T16:45:34.241Z,34.99
2019-06-26T16:48:04.057Z,34.93
2019-06-26T16:50:35.193Z,34.86
2019-06-26T16:53:04.971Z,34.69
2019-06-26T16:55:34.608Z,34.48
2019-06-26T16:58:04.295Z,34.31
2019-06-26T17:00:34.018Z,34.18
2019-06-26T17:03:03.812Z,34.08
2019-06-26T17:05:33.429Z,33.95
2019-06-26T17:08:03.105Z,33.86
2019-06-26T17:10:32.740Z,33.77
2019-06-26T17:13:02.855Z,33.68
2019-06-26T17:15:32.573Z,33.63
2019-06-26T17:18:02.413Z,33.57
2019-06-26T17:20:32.111Z,33.50
2019-06-26T17:23:06.279Z,33.47
2019-06-26T17:25:33.357Z,33.42
2019-06-26T17:28:03.001Z,33.37
2019-06-26T17:30:32.688Z,33.30
2019-06-26T17:33:02.315Z,33.21
2019-06-26T17:35:32.016Z,33.15
2019-06-26T17:38:03.209Z,33.09
2019-06-26T17:40:32.857Z,33.02
2019-06-26T17:43:12.011Z,32.94
2019-06-26T17:45:33.890Z,32.84
2019-06-26T17:48:03.505Z,32.77
2019-06-26T17:50:33.144Z,32.68
2019-06-26T17:53:03.471Z,32.60
2019-06-26T17:55:33.239Z,32.54
2019-06-26T17:58:03.058Z,32.50
2019-06-26T18:00:35.961Z,32.47
2019-06-26T18:03:05.741Z,32.42
2019-06-26T18:05:35.432Z,32.33
2019-06-26T18:08:05.283Z,32.24
2019-06-26T18:10:35.311Z,32.17
2019-06-26T18:13:05.012Z,32.11
2019-06-26T18:15:35.228Z,32.02
2019-06-26T18:18:04.870Z,31.91
2019-06-26T18:20:34.676Z,31.74
2019-06-26T18:23:07.487Z,31.63
2019-06-26T18:25:35.778Z,31.55
2019-06-26T18:28:05.463Z,31.43
2019-06-26T18:30:35.143Z,31.21
2019-06-26T18:33:04.835Z,30.99
2019-06-26T18:35:34.458Z,30.86
2019-06-26T18:38:04.181Z,30.76
2019-06-26T18:40:33.868Z,30.67
2019-06-26T18:43:03.499Z,30.60
2019-06-26T18:45:33.164Z,30.49
2019-06-26T18:48:02.808Z,30.40
2019-06-26T18:50:32.488Z,30.27
2019-06-26T18:53:02.200Z,30.19
2019-06-26T18:55:33.471Z,30.13
2019-06-26T18:58:03.089Z,30.08
2019-06-26T19:00:32.800Z,30.05
2019-06-26T19:03:02.444Z,29.96
2019-06-26T19:05:32.110Z,29.86
2019-06-26T19:08:01.772Z,29.80
2019-06-26T19:10:31.420Z,29.69
2019-06-26T19:13:01.051Z,29.61
2019-06-26T19:15:30.813Z,29.53
2019-06-26T19:18:00.442Z,29.50
2019-06-26T19:20:33.639Z,29.45
2019-06-26T19:23:01.607Z,29.39
2019-06-26T19:25:31.247Z,29.25
2019-06-26T19:28:01.072Z,29.14
2019-06-26T19:30:30.819Z,29.06
2019-06-26T19:33:00.654Z,28.99
2019-06-26T19:35:30.488Z,28.93
2019-06-26T19:38:00.263Z,28.89
2019-06-26T19:40:31.362Z,28.90
2019-06-26T19:43:01.004Z,28.84
2019-06-26T19:45:30.718Z,28.78
2019-06-26T19:48:09.312Z,28.72
2019-06-26T19:50:35.964Z,28.66
2019-06-26T19:53:07.361Z,28.58
2019-06-26T19:55:37.362Z,28.47
2019-06-26T19:58:07.103Z,28.32
2019-06-26T20:00:37.584Z,28.22
2019-06-26T20:03:11.967Z,28.13
2019-06-26T20:05:42.416Z,28.01
2019-06-26T20:08:12.753Z,27.92
2019-06-26T20:10:42.411Z,27.83
2019-06-26T20:13:12.509Z,27.80
2019-06-26T20:15:42.297Z,27.76
2019-06-26T20:18:11.928Z,27.72
2019-06-26T20:20:41.825Z,27.67
2019-06-26T20:23:11.553Z,27.58
2019-06-26T20:25:41.182Z,27.53
2019-06-26T20:28:18.235Z,27.48
2019-06-26T20:30:49.389Z,27.43
2019-06-26T20:33:19.207Z,27.40
2019-06-26T20:35:48.824Z,27.38
2019-06-26T20:38:18.504Z,27.42
2019-06-26T20:40:48.134Z,27.40
2019-06-26T20:43:17.828Z,27.32
2019-06-26T20:45:47.591Z,27.26
2019-06-26T20:48:17.291Z,27.16
2019-06-26T20:50:47.047Z,27.05
2019-06-26T20:53:16.745Z,26.93
2019-06-26T20:55:46.463Z,26.81
2019-06-26T20:58:16.154Z,26.73
2019-06-26T21:00:45.895Z,26.68
2019-06-26T21:03:15.502Z,26.64
2019-06-26T21:05:45.133Z,26.51
2019-06-26T21:08:14.982Z,26.39
2019-06-26T21:10:44.608Z,26.32
2019-06-26T21:13:14.308Z,26.22
2019-06-26T21:15:44.089Z,26.17
2019-06-26T21:18:13.859Z,26.15
2019-06-26T21:20:43.489Z,26.11
2019-06-26T21:23:19.049Z,26.04
2019-06-26T21:25:44.534Z,26.05
2019-06-26T21:28:14.155Z,26.10
2019-06-26T21:30:43.841Z,26.06
2019-06-26T21:33:13.499Z,26.01
2019-06-26T21:35:43.109Z,26.00
2019-06-26T21:38:12.800Z,25.86
2019-06-26T21:40:42.430Z,25.78
2019-06-26T21:43:12.325Z,25.72
2019-06-26T21:45:42.016Z,25.60
2019-06-26T21:48:11.633Z,25.55
2019-06-26T21:50:41.537Z,25.53
2019-06-26T21:53:11.243Z,25.53
2019-06-26T21:55:40.958Z,25.59
2019-06-26T21:58:10.652Z,25.55
2019-06-26T22:00:40.689Z,25.53
2019-06-26T22:03:11.094Z,25.52
2019-06-26T22:05:40.710Z,25.53
2019-06-26T22:08:10.397Z,25.48
2019-06-26T22:10:40.784Z,25.41
2019-06-26T22:13:10.502Z,25.37
2019-06-26T22:15:40.215Z,25.27
2019-06-26T22:18:10.109Z,25.24
2019-06-26T22:20:39.739Z,25.12
2019-06-26T22:23:09.590Z,25.02
2019-06-26T22:25:50.343Z,24.98
2019-06-26T22:28:10.621Z,24.97
2019-06-26T22:30:41.050Z,24.87
2019-06-26T22:33:10.695Z,24.77
2019-06-26T22:35:40.641Z,24.71
2019-06-26T22:38:10.805Z,24.67
2019-06-26T22:40:40.514Z,24.67
2019-06-26T22:43:10.159Z,24.67
2019-06-26T22:45:40.477Z,24.67
2019-06-26T22:48:10.102Z,24.65
2019-06-26T22:50:40.200Z,24.63
2019-06-26T22:53:09.964Z,24.55
2019-06-26T22:55:39.602Z,24.51
2019-06-26T22:58:09.223Z,24.51
2019-06-26T23:00:38.961Z,24.51
2019-06-26T23:03:08.601Z,24.45
2019-06-26T23:05:38.310Z,24.41
2019-06-26T23:08:08.064Z,24.35
2019-06-26T23:10:37.689Z,24.40
2019-06-26T23:13:09.639Z,24.43
2019-06-26T23:15:38.857Z,24.35
2019-06-26T23:18:08.819Z,24.29
2019-06-26T23:20:38.729Z,24.24
2019-06-26T23:23:08.389Z,24.21
2019-06-26T23:25:38.389Z,24.16
2019-06-26T23:28:08.012Z,24.15
2019-06-26T23:30:37.782Z,24.13
2019-06-26T23:33:07.418Z,24.06
2019-06-26T23:35:37.622Z,24.00
2019-06-26T23:38:07.402Z,23.94
2019-06-26T23:40:37.385Z,23.89
2019-06-26T23:43:07.175Z,23.81
2019-06-26T23:45:37.110Z,23.65
2019-06-26T23:48:06.735Z,23.54
2019-06-26T23:50:36.468Z,23.50
2019-06-26T23:53:06.134Z,23.54
2019-06-26T23:55:35.755Z,23.55
2019-06-26T23:58:05.447Z,23.61
